Petersburg, West Virginia
Current Conditions -  °F | °C
As of 3:15 PM on Thursday 23 Oct 2014 (Local Time) from KW99 Reporting Station
Scattered Clouds Scattered Clouds  
Wind Chill: 57°   Ceiling: Unl
Heat Index: 57°   Visibility: 10mi
Dew Point: 39°   Wind: 10mph
Humidity: 50%   Direction: 300°WNW
Pressure: 30.02"   Gusts: 17mph
Location:  38.99°N, 79.12°W
Report Text: KW99 231915Z AUTO 30009G15KT 260V330 10SM SCT041 SCT046 14/04 A3002 RMK AO2 T01410038
Loading
Personal Weather Stations






























Interactive Weather Map
Tropical Storm Tracking
New forecast layout! Learn more

10-Day Weather Forecast

Advertisements
Track Severe Weather on mobile